createdAt,value
2023-05-15T00:03:13.067Z,11.35
2023-05-15T00:08:17.086Z,9.98
2023-05-15T00:13:22.082Z,10.50
2023-05-15T00:18:26.247Z,9.90
2023-05-15T00:23:30.520Z,10.73
2023-05-15T00:28:34.439Z,16.48
2023-05-15T00:33:38.554Z,13.05
2023-05-15T00:38:42.482Z,9.82
2023-05-15T00:43:47.644Z,9.43
2023-05-15T00:48:52.465Z,8.52
2023-05-15T00:53:57.405Z,10.25
2023-05-15T00:59:07.515Z,10.75
2023-05-15T01:04:12.220Z,6.93
2023-05-15T01:09:17.063Z,6.20
2023-05-15T01:14:21.044Z,5.47
2023-05-15T01:19:25.201Z,4.50
2023-05-15T01:24:54.241Z,4.20
2023-05-15T01:30:21.566Z,4.70
2023-05-15T01:35:35.517Z,4.35
2023-05-15T01:40:40.227Z,5.43
2023-05-15T01:45:46.803Z,5.53
2023-05-15T01:50:55.563Z,4.88
2023-05-15T01:56:00.964Z,4.78
2023-05-15T02:01:06.746Z,4.38
2023-05-15T02:06:13.376Z,4.25
2023-05-15T02:11:17.495Z,4.18
2023-05-15T02:16:23.045Z,3.92
2023-05-15T02:21:27.237Z,3.17
2023-05-15T02:27:03.814Z,3.47
2023-05-15T02:32:49.030Z,3.38
2023-05-15T02:37:57.674Z,3.55
2023-05-15T02:43:03.654Z,3.97
2023-05-15T02:48:09.828Z,3.97
2023-05-15T02:53:15.229Z,3.97
2023-05-15T02:58:19.564Z,4.22
2023-05-15T03:03:23.546Z,4.47
2023-05-15T03:08:27.856Z,4.38
2023-05-15T03:13:31.757Z,4.65
2023-05-15T03:18:35.849Z,4.35
2023-05-15T03:23:39.887Z,4.70
2023-05-15T03:28:45.631Z,4.10
2023-05-15T03:33:50.880Z,4.60
2023-05-15T03:38:54.858Z,4.40
2023-05-15T03:43:58.871Z,4.60
2023-05-15T03:49:02.883Z,4.25
2023-05-15T03:54:07.679Z,4.30
2023-05-15T03:59:11.833Z,4.15
2023-05-15T04:04:16.138Z,4.80
2023-05-15T04:09:20.325Z,4.43
2023-05-15T04:14:24.175Z,4.25
2023-05-15T04:19:28.181Z,3.90
2023-05-15T04:24:32.213Z,3.90
2023-05-15T04:29:36.244Z,3.83
2023-05-15T04:34:41.648Z,3.65
2023-05-15T04:39:45.529Z,3.67
2023-05-15T04:44:49.635Z,3.78
2023-05-15T04:49:53.785Z,3.17
2023-05-15T04:54:57.847Z,3.45
2023-05-15T05:00:02.224Z,3.83
2023-05-15T05:05:09.178Z,2.88
2023-05-15T05:10:14.020Z,3.50
2023-05-15T05:15:18.226Z,3.08
2023-05-15T05:20:22.102Z,2.75
2023-05-15T05:25:26.562Z,3.00
2023-05-15T05:30:30.702Z,2.80
2023-05-15T05:35:34.460Z,2.40
2023-05-15T05:40:39.259Z,2.38
2023-05-15T05:45:43.266Z,2.50
2023-05-15T05:50:47.425Z,2.35
2023-05-15T05:55:51.402Z,2.60
2023-05-15T06:00:55.731Z,2.22
2023-05-15T06:06:00.158Z,2.60
2023-05-15T06:11:04.322Z,2.40
2023-05-15T06:16:08.458Z,2.22
2023-05-15T06:21:12.385Z,2.40
2023-05-15T06:26:16.475Z,2.22
2023-05-15T06:31:20.690Z,2.53
2023-05-15T06:36:24.715Z,2.08
2023-05-15T06:41:28.803Z,2.47
2023-05-15T06:46:32.716Z,2.35
2023-05-15T06:51:36.838Z,2.30
2023-05-15T06:56:40.963Z,2.25
2023-05-15T07:01:45.136Z,2.40
2023-05-15T07:06:49.262Z,2.15
2023-05-15T07:11:53.193Z,2.22
2023-05-15T07:16:57.451Z,2.35
2023-05-15T07:22:03.197Z,2.30
2023-05-15T07:27:07.810Z,3.15
2023-05-15T07:32:11.855Z,3.50
2023-05-15T07:37:16.979Z,3.55
2023-05-15T07:42:22.358Z,3.42
2023-05-15T07:47:26.228Z,3.45
2023-05-15T07:52:30.495Z,3.47
2023-05-15T07:57:34.333Z,3.90
2023-05-15T08:02:38.772Z,3.47
2023-05-15T08:07:42.749Z,3.38
2023-05-15T08:12:48.218Z,3.35
2023-05-15T08:17:52.200Z,3.90
2023-05-15T08:22:56.411Z,3.80
2023-05-15T08:28:00.566Z,3.90
2023-05-15T08:33:04.786Z,4.57
2023-05-15T08:38:09.047Z,4.13
2023-05-15T08:43:19.398Z,4.38
2023-05-15T08:48:29.091Z,4.15
2023-05-15T08:53:33.238Z,4.70
2023-05-15T08:58:37.394Z,4.78
2023-05-15T09:03:42.200Z,5.00
2023-05-15T09:08:47.280Z,4.97
2023-05-15T09:13:51.432Z,5.18
2023-05-15T09:18:55.387Z,5.40
2023-05-15T09:24:38.942Z,7.00
2023-05-15T09:29:43.039Z,6.68
2023-05-15T09:34:47.476Z,7.30
2023-05-15T09:39:51.456Z,7.25
2023-05-15T09:44:55.330Z,7.43
2023-05-15T09:49:59.496Z,8.38
2023-05-15T09:55:03.532Z,7.72
2023-05-15T10:00:12.802Z,7.72
2023-05-15T10:05:17.613Z,6.95
2023-05-15T10:10:22.152Z,6.20
2023-05-15T10:27:13.155Z,5.50
2023-05-15T10:32:18.246Z,4.78
2023-05-15T10:37:24.022Z,5.30
2023-05-15T10:42:30.503Z,4.68
2023-05-15T10:47:35.279Z,5.20
2023-05-15T10:52:40.261Z,4.65
2023-05-15T10:57:48.277Z,4.10
2023-05-15T11:02:57.517Z,5.28
2023-05-15T11:08:19.108Z,5.40
2023-05-15T11:13:23.102Z,4.97
2023-05-15T11:18:27.222Z,4.50
2023-05-15T11:23:40.984Z,4.65
2023-05-15T11:28:45.319Z,6.10
2023-05-15T11:33:52.528Z,6.45
2023-05-15T11:38:57.278Z,7.57
2023-05-15T11:44:02.479Z,5.75
2023-05-15T11:49:06.799Z,5.50
2023-05-15T11:54:14.002Z,4.63
2023-05-15T11:59:17.876Z,5.47
2023-05-15T12:04:22.144Z,5.13
2023-05-15T12:09:28.539Z,4.78
2023-05-15T12:14:34.318Z,5.20
2023-05-15T12:19:40.044Z,5.22
2023-05-15T12:24:43.942Z,4.82
2023-05-15T12:29:48.218Z,5.30
2023-05-15T12:34:52.366Z,5.03
2023-05-15T12:40:05.760Z,5.47
2023-05-15T12:45:17.800Z,5.57
2023-05-15T12:50:24.035Z,4.75
2023-05-15T12:55:33.340Z,4.80
2023-05-15T13:00:40.245Z,5.38
2023-05-15T13:05:46.058Z,5.15
2023-05-15T13:11:01.669Z,5.55
2023-05-15T13:16:07.479Z,4.85
2023-05-15T13:21:12.703Z,5.43
2023-05-15T13:26:16.651Z,5.75
2023-05-15T13:31:20.906Z,5.70
2023-05-15T13:36:24.882Z,6.45
2023-05-15T13:41:29.160Z,10.07
2023-05-15T13:46:33.161Z,13.93
2023-05-15T13:51:37.386Z,10.65
2023-05-15T13:56:41.523Z,7.50
2023-05-15T14:01:46.370Z,6.93
2023-05-15T14:06:50.443Z,8.35
2023-05-15T14:11:54.356Z,7.22
2023-05-15T14:16:58.470Z,7.90
2023-05-15T14:22:02.463Z,7.68
2023-05-15T14:27:06.847Z,6.60
2023-05-15T14:32:11.057Z,6.90
2023-05-15T14:37:15.292Z,8.35
2023-05-15T14:42:21.678Z,11.55
2023-05-15T14:47:28.663Z,8.57
2023-05-15T14:52:32.791Z,6.68
2023-05-15T14:57:36.874Z,7.93
2023-05-15T15:02:41.147Z,11.38
2023-05-15T15:08:07.584Z,9.65
2023-05-15T15:13:14.356Z,10.43
2023-05-15T15:18:18.801Z,12.15
2023-05-15T15:23:23.553Z,10.57
2023-05-15T15:28:30.027Z,8.70
2023-05-15T15:33:33.978Z,7.15
2023-05-15T15:38:38.146Z,6.85
2023-05-15T15:43:42.347Z,10.98
2023-05-15T15:48:46.264Z,7.47
2023-05-15T15:53:50.360Z,7.88
2023-05-15T15:58:54.280Z,7.72
2023-05-15T16:03:58.560Z,8.70
2023-05-15T16:09:02.840Z,8.15
2023-05-15T16:14:06.822Z,8.10
2023-05-15T16:19:10.960Z,10.40
2023-05-15T16:24:15.183Z,11.27
2023-05-15T16:29:19.751Z,10.23
2023-05-15T16:34:23.767Z,10.10
2023-05-15T16:39:27.857Z,9.60
2023-05-15T16:44:33.188Z,8.27
2023-05-15T16:49:37.192Z,10.05
2023-05-15T16:54:42.678Z,8.23
2023-05-15T16:59:46.652Z,8.93
2023-05-15T17:04:50.623Z,8.70
2023-05-15T17:09:55.605Z,8.30
2023-05-15T17:14:59.658Z,7.15
2023-05-15T17:20:04.643Z,7.45
2023-05-15T17:25:09.763Z,8.02
2023-05-15T17:30:13.980Z,7.70
2023-05-15T17:35:18.266Z,6.57
2023-05-15T17:40:22.303Z,7.43
2023-05-15T17:45:27.635Z,6.50
2023-05-15T17:50:32.044Z,6.45
2023-05-15T17:55:36.304Z,6.32
2023-05-15T18:00:40.329Z,6.40
2023-05-15T18:05:47.589Z,5.63
2023-05-15T18:10:51.607Z,6.80
2023-05-15T18:15:55.708Z,5.75
2023-05-15T18:20:59.892Z,9.07
2023-05-15T18:26:03.811Z,10.23
2023-05-15T18:31:08.953Z,8.07
2023-05-15T18:36:13.040Z,5.80
2023-05-15T18:41:17.014Z,7.88
2023-05-15T18:46:21.278Z,6.05
2023-05-15T18:51:25.151Z,6.28
2023-05-15T18:56:29.346Z,7.18
2023-05-15T19:01:33.338Z,8.00
2023-05-15T19:06:37.507Z,7.43
2023-05-15T19:11:42.043Z,7.07
2023-05-15T19:16:46.879Z,7.82
2023-05-15T19:21:52.844Z,7.80
2023-05-15T19:26:56.799Z,9.65
2023-05-15T19:32:02.168Z,9.75
2023-05-15T19:37:06.526Z,9.13
2023-05-15T19:42:10.654Z,9.55
2023-05-15T19:47:14.768Z,9.27
2023-05-15T19:52:20.598Z,10.07
2023-05-15T19:57:24.468Z,10.52
2023-05-15T20:02:28.518Z,9.30
2023-05-15T20:07:32.675Z,9.68
2023-05-15T20:12:36.911Z,11.13
2023-05-15T20:17:42.386Z,12.70
2023-05-15T20:22:46.489Z,11.40
2023-05-15T20:27:50.529Z,12.95
2023-05-15T20:32:54.739Z,12.18
2023-05-15T20:37:59.186Z,11.40
2023-05-15T20:43:03.066Z,11.55
2023-05-15T20:48:09.294Z,13.63
2023-05-15T20:53:13.951Z,11.52
2023-05-15T20:58:18.000Z,13.02
2023-05-15T21:03:21.961Z,12.90
2023-05-15T21:08:26.048Z,14.10
2023-05-15T21:13:30.103Z,13.73
2023-05-15T21:18:34.270Z,11.57
2023-05-15T21:23:38.530Z,10.68
2023-05-15T21:28:42.590Z,11.23
2023-05-15T21:33:46.796Z,10.32
2023-05-15T21:38:50.811Z,10.73
2023-05-15T21:43:54.789Z,10.60
2023-05-15T21:49:00.087Z,10.70
2023-05-15T21:54:04.926Z,11.38
2023-05-15T21:59:09.091Z,11.40
2023-05-15T22:04:13.400Z,10.13
2023-05-15T22:09:17.557Z,13.02
2023-05-15T22:14:21.881Z,12.68
2023-05-15T22:19:32.975Z,12.13
2023-05-15T22:24:37.899Z,12.32
2023-05-15T22:29:41.958Z,7.88
2023-05-15T22:34:45.870Z,8.63
2023-05-15T22:39:49.994Z,5.25
2023-05-15T22:44:56.073Z,5.28
2023-05-15T22:50:00.297Z,5.97
2023-05-15T22:55:04.359Z,6.97
2023-05-15T23:00:10.854Z,6.32
2023-05-15T23:05:15.274Z,5.95
2023-05-15T23:10:19.425Z,6.82
2023-05-15T23:15:23.735Z,6.60
2023-05-15T23:20:28.061Z,6.97
2023-05-15T23:25:32.721Z,6.15
2023-05-15T23:30:36.729Z,7.75
2023-05-15T23:35:41.261Z,9.15
2023-05-15T23:40:45.171Z,8.10
2023-05-15T23:45:49.262Z,8.60
2023-05-15T23:50:53.805Z,8.90
2023-05-15T23:55:57.800Z,7.97
